createdAt,value
2015-02-20T16:22:40.393Z,1068
2015-02-20T16:22:51.127Z,3488
2015-02-20T16:23:01.517Z,3411
2015-02-20T16:23:11.917Z,3421
2015-02-20T16:23:22.383Z,3525
2015-02-20T16:23:33.443Z,3508
2015-02-20T16:23:43.840Z,3529
2015-02-20T16:23:54.226Z,3449
2015-02-20T16:24:04.619Z,3438
2015-02-20T16:24:16.340Z,3437
2015-02-20T16:24:26.819Z,3495
2015-02-20T16:24:37.243Z,3492
2015-02-20T16:24:47.631Z,3408
2015-02-20T16:24:58.047Z,3403
2015-02-20T16:25:08.415Z,3376
2015-02-20T16:25:19.501Z,3283
2015-02-20T16:25:30.755Z,3219
2015-02-20T16:25:41.166Z,3235
2015-02-20T16:25:52.760Z,3190
2015-02-20T16:26:04.402Z,3172
2015-02-20T16:26:14.769Z,3151
2015-02-20T16:26:25.143Z,3201
2015-02-20T16:27:41.758Z,4072
2015-02-20T16:27:52.129Z,4458
2015-02-20T16:28:02.517Z,4869
2015-02-20T16:28:12.884Z,5309
2015-02-20T16:28:23.284Z,6061
2015-02-20T16:28:33.690Z,6657
2015-02-20T16:28:44.064Z,6863
2015-02-20T16:28:54.421Z,6926
2015-02-20T16:29:04.776Z,7064
2015-02-20T16:29:15.147Z,7166
2015-02-20T16:29:25.537Z,7296
2015-02-20T16:29:35.909Z,7428
2015-02-20T16:29:46.279Z,7565
2015-02-20T16:29:56.668Z,7575
2015-02-20T16:30:07.045Z,7710
2015-02-20T16:30:19.845Z,7762
2015-02-20T16:30:30.258Z,7712
2015-02-20T16:30:40.659Z,7733
2015-02-20T16:30:51.067Z,7724
2015-02-20T16:31:01.488Z,7748
2015-02-20T16:31:11.960Z,7687
2015-02-20T16:31:23.145Z,7820
2015-02-20T16:31:34.757Z,7822
2015-02-20T16:31:45.141Z,7784
2015-02-20T16:31:55.555Z,7774
2015-02-20T16:32:06.636Z,7723
2015-02-20T16:32:17.392Z,7536
2015-02-20T16:32:27.759Z,7636
2015-02-20T16:32:38.128Z,7611
2015-02-20T16:32:48.579Z,7784
2015-02-20T16:32:59.017Z,7682
2015-02-20T16:33:10.900Z,7442
2015-02-20T16:33:21.332Z,7367
2015-02-20T16:33:32.377Z,7301
2015-02-20T16:33:42.718Z,7438
2015-02-20T16:33:53.121Z,7434
2015-02-20T16:34:03.508Z,7457
2015-02-20T16:34:15.329Z,7391
2015-02-20T16:34:25.953Z,7318
2015-02-20T16:34:36.403Z,7331
2015-02-20T16:34:46.800Z,7340
2015-02-20T16:34:57.972Z,7317
2015-02-20T16:35:09.825Z,7298
2015-02-20T16:35:20.701Z,7348
2015-02-20T16:35:31.107Z,7232
2015-02-20T16:35:41.506Z,7591
2015-02-20T16:35:51.896Z,1801
2015-02-20T16:36:02.266Z,4226
2015-02-20T16:36:12.660Z,3227
2015-02-20T16:36:24.279Z,3110
2015-02-20T16:36:34.648Z,2438
2015-02-20T16:36:45.014Z,2460
2015-02-20T16:36:55.408Z,3174
2015-02-20T16:37:05.783Z,2998
2015-02-20T16:37:16.227Z,2912
2015-02-20T16:37:26.642Z,2901
2015-02-20T16:37:37.031Z,2724
2015-02-20T16:37:47.405Z,2162
2015-02-20T16:37:57.794Z,2134
2015-02-20T16:38:08.191Z,2105
2015-02-20T16:38:18.581Z,2084
2015-02-20T16:38:28.960Z,2062
2015-02-20T16:38:39.397Z,2068
2015-02-20T16:38:49.813Z,2057
2015-02-20T16:39:01.517Z,2039
2015-02-20T16:39:13.238Z,2007
2015-02-20T16:39:23.597Z,2009
2015-02-20T16:39:33.978Z,1994
2015-02-20T16:39:44.375Z,1983
2015-02-20T16:39:54.782Z,1969
2015-02-20T16:40:06.360Z,1946
2015-02-20T16:40:18.418Z,1933
2015-02-20T16:40:28.833Z,1904
2015-02-20T16:40:39.204Z,1895
2015-02-20T16:40:49.594Z,1866
2015-02-20T16:40:59.975Z,1858
2015-02-20T16:41:10.415Z,1829
2015-02-20T16:41:21.365Z,1832
2015-02-20T16:41:31.790Z,1813
2015-02-20T16:41:42.203Z,1789
2015-02-20T16:41:52.593Z,1773
2015-02-20T16:42:02.968Z,1754
2015-02-20T16:42:13.359Z,1729
2015-02-20T16:42:23.761Z,1705
2015-02-20T16:42:34.174Z,1684
2015-02-20T16:42:44.596Z,1687
2015-02-20T16:42:54.985Z,1681
2015-02-20T16:43:05.378Z,1655
2015-02-20T16:43:15.756Z,1627
2015-02-20T16:43:26.135Z,1615
2015-02-20T16:43:36.601Z,1604
2015-02-20T16:43:46.978Z,1578
2015-02-20T16:43:57.398Z,1567
2015-02-20T16:44:07.789Z,1535
2015-02-20T16:44:18.185Z,1503
2015-02-20T16:44:28.578Z,1485
2015-02-20T16:44:38.887Z,1470
2015-02-20T16:44:49.295Z,1463
2015-02-20T16:44:59.681Z,1449
2015-02-20T16:45:10.053Z,1425
2015-02-20T16:45:20.571Z,1401
2015-02-20T16:45:30.943Z,1378
2015-02-20T16:45:41.334Z,1359
2015-02-20T16:45:51.791Z,1350
2015-02-20T16:46:02.195Z,1338
2015-02-20T16:46:12.562Z,1340
2015-02-20T16:46:22.953Z,1318
2015-02-20T16:46:33.329Z,1324
2015-02-20T16:46:43.724Z,1324
2015-02-20T16:46:54.121Z,1329
2015-02-20T16:47:05.181Z,1352
2015-02-20T16:47:15.599Z,1380
2015-02-20T16:47:26.653Z,1387
2015-02-20T16:47:37.104Z,1397
2015-02-20T16:47:47.491Z,1406
2015-02-20T16:47:57.884Z,1400
2015-02-20T16:48:08.269Z,1392
2015-02-20T16:48:18.647Z,1379
2015-02-20T16:48:29.043Z,1346
2015-02-20T16:48:39.462Z,1318
2015-02-20T16:48:49.857Z,1315
2015-02-20T16:49:00.265Z,1283
2015-02-20T16:49:10.661Z,1254
2015-02-20T16:49:21.167Z,1235
2015-02-20T16:49:32.295Z,1217
2015-02-20T16:49:42.688Z,1167
2015-02-20T16:49:53.057Z,1156
2015-02-20T16:50:03.457Z,1145
2015-02-20T16:50:13.919Z,1137
2015-02-20T16:50:25.582Z,1110
2015-02-20T16:50:37.097Z,1110
2015-02-20T16:50:47.520Z,1094
2015-02-20T16:50:57.849Z,1089
2015-02-20T16:51:08.249Z,1086
2015-02-20T16:51:19.276Z,1052
2015-02-20T16:51:29.670Z,1051
2015-02-20T16:51:40.344Z,1030
2015-02-20T16:51:51.230Z,1030
2015-02-20T16:52:01.646Z,1003
2015-02-20T16:52:12.024Z,993
2015-02-20T16:52:22.434Z,985
2015-02-20T16:52:32.801Z,972
2015-02-20T16:52:43.169Z,948
2015-02-20T16:52:53.540Z,945
2015-02-20T16:53:03.904Z,940
2015-02-20T16:53:14.251Z,953
2015-02-20T16:53:24.589Z,944
2015-02-20T16:53:34.939Z,936
2015-02-20T16:53:45.300Z,931
2015-02-20T16:53:55.697Z,923
2015-02-20T16:54:06.069Z,911
2015-02-20T16:54:16.440Z,918
2015-02-20T16:54:26.827Z,914
2015-02-20T16:54:37.149Z,898
2015-02-20T16:54:47.465Z,886
2015-02-20T16:54:57.872Z,888
2015-02-20T16:55:08.220Z,873
2015-02-20T16:55:20.453Z,855
2015-02-20T16:55:30.827Z,850
2015-02-20T16:55:41.222Z,836
2015-02-20T16:55:51.585Z,838
2015-02-20T16:56:01.951Z,823
2015-02-20T16:56:12.252Z,823
2015-02-20T16:56:22.637Z,824
2015-02-20T16:56:35.595Z,811
2015-02-20T16:56:45.965Z,817
2015-02-20T16:56:56.332Z,812
2015-02-20T16:57:06.691Z,803
2015-02-20T16:57:17.038Z,796
2015-02-20T16:57:27.408Z,794
2015-02-20T16:57:37.799Z,801
2015-02-20T16:57:49.701Z,794
2015-02-20T16:58:01.321Z,770
2015-02-20T16:58:12.342Z,757
2015-02-20T16:58:22.654Z,769
2015-02-20T16:58:33.047Z,758
2015-02-20T16:58:43.436Z,767
2015-02-20T16:58:53.811Z,758
2015-02-20T16:59:06.676Z,749
2015-02-20T16:59:17.051Z,738
2015-02-20T16:59:27.416Z,738
2015-02-20T16:59:37.761Z,731
2015-02-20T16:59:48.133Z,752
2015-02-20T16:59:58.530Z,752
2015-02-20T17:00:08.917Z,725
2015-02-20T17:00:19.334Z,734
2015-02-20T17:00:30.314Z,731
2015-02-20T17:00:40.682Z,716
2015-02-20T17:00:51.106Z,724
2015-02-20T17:01:01.482Z,725
2015-02-20T17:01:11.839Z,730
2015-02-20T17:01:22.203Z,717
2015-02-20T17:01:34.009Z,715
2015-02-20T17:01:44.403Z,709
2015-02-20T17:01:54.756Z,702
2015-02-20T17:02:05.149Z,692
2015-02-20T17:02:15.575Z,691
2015-02-20T17:02:25.950Z,688
2015-02-20T17:02:36.962Z,690
2015-02-20T17:02:48.812Z,666
2015-02-20T17:02:59.160Z,666
2015-02-20T17:03:09.554Z,677
2015-02-20T17:03:19.945Z,674
2015-02-20T17:03:30.308Z,676
2015-02-20T17:03:40.688Z,668
2015-02-20T17:03:51.049Z,665
2015-02-20T17:04:01.412Z,663
2015-02-20T17:04:11.830Z,657
2015-02-20T17:04:22.197Z,653
2015-02-20T17:04:32.549Z,638
2015-02-20T17:04:42.936Z,649
2015-02-20T17:04:53.308Z,656
2015-02-20T17:05:03.672Z,648
2015-02-20T17:05:14.553Z,644
2015-02-20T17:05:25.532Z,650
2015-02-20T17:05:35.905Z,650
2015-02-20T17:05:46.302Z,652
2015-02-20T17:05:58.024Z,650
2015-02-20T17:06:09.747Z,637
2015-02-20T17:06:20.162Z,629
2015-02-20T17:06:30.532Z,636
2015-02-20T17:06:40.900Z,635
2015-02-20T17:06:51.268Z,641
2015-02-20T17:07:01.635Z,636
2015-02-20T17:07:13.462Z,629
2015-02-20T17:07:25.241Z,623
2015-02-20T17:07:35.612Z,620
2015-02-20T17:07:46.025Z,611
2015-02-20T17:07:56.426Z,624
2015-02-20T17:08:06.901Z,627
2015-02-20T17:08:17.211Z,622
2015-02-20T17:08:27.578Z,634
2015-02-20T17:08:37.946Z,627
2015-02-20T17:08:48.319Z,587
2015-02-20T17:08:58.683Z,601
2015-02-20T17:09:09.047Z,605
2015-02-20T17:09:19.414Z,606
2015-02-20T17:09:29.788Z,613
2015-02-20T17:09:40.178Z,614
2015-02-20T17:09:50.585Z,606
2015-02-20T17:10:00.947Z,594
2015-02-20T17:10:11.317Z,591
2015-02-20T17:10:21.673Z,606
2015-02-20T17:10:32.047Z,610
2015-02-20T17:10:42.409Z,616
2015-02-20T17:10:53.532Z,609
2015-02-20T17:11:03.918Z,610
2015-02-20T17:11:14.279Z,600
2015-02-20T17:11:24.649Z,620
2015-02-20T17:11:34.946Z,610
2015-02-20T17:11:45.392Z,621
2015-02-20T17:11:55.755Z,604
2015-02-20T17:12:06.123Z,609
2015-02-20T17:12:16.496Z,622
2015-02-20T17:12:26.811Z,614
2015-02-20T17:12:37.867Z,609
2015-02-20T17:12:48.265Z,602
2015-02-20T17:12:59.989Z,582
2015-02-20T17:13:10.352Z,601
2015-02-20T17:13:21.353Z,587
2015-02-20T17:13:31.709Z,594
2015-02-20T17:13:42.097Z,609
2015-02-20T17:13:52.461Z,606
2015-02-20T17:14:04.213Z,582
2015-02-20T17:14:14.585Z,610
2015-02-20T17:14:24.960Z,602
2015-02-20T17:14:35.358Z,603
2015-02-20T17:14:46.382Z,603
2015-02-20T17:14:56.746Z,604
2015-02-20T17:15:07.111Z,604
2015-02-20T17:15:17.478Z,604
2015-02-20T17:15:29.582Z,596
2015-02-20T17:15:40.061Z,589
2015-02-20T17:15:50.433Z,570
2015-02-20T17:16:00.820Z,593
2015-02-20T17:16:11.189Z,600
2015-02-20T17:16:21.559Z,604
2015-02-20T17:16:32.897Z,596
2015-02-20T17:16:44.729Z,587
2015-02-20T17:16:55.095Z,593
2015-02-20T17:17:05.461Z,585
2015-02-20T17:17:15.865Z,590
2015-02-20T17:17:26.225Z,585
2015-02-20T17:17:36.521Z,590
2015-02-20T17:17:46.915Z,601
2015-02-20T17:17:57.302Z,567
2015-02-20T17:18:07.704Z,569
2015-02-20T17:18:18.138Z,173
